Time;durP1;ratioP1;P1;durP2;ratioP2;P2;SDS_P1;SDS_P2;PMS_P1;PMS_P2;Temp;Humidity;BMP_temperature;BMP_pressure;BME280_temperature;BME280_humidity;BME280_pressure;Samples;Min_cycle;Max_cycle;Signal;HPM_P1;HPM_P2
2022/09/27 00:00:18;;;;;;;34.10;17.60;;;;;;;9.09;94.37;98886.02;105838;1281;25399;-74
2022/09/27 00:03:10;;;;;;;33.70;18.30;;;;;;;9.11;94.81;98884.45;105819;1279;22550;-80
2022/09/27 00:05:41;;;;;;;33.00;17.10;;;;;;;9.13;94.64;98881.67;105797;1278;24419;-75
2022/09/27 00:08:13;;;;;;;34.20;17.00;;;;;;;9.14;94.80;98879.77;105804;1279;25699;-76
2022/09/27 00:10:45;;;;;;;34.30;17.70;;;;;;;9.17;94.91;98878.00;105783;1281;24267;-75
2022/09/27 00:13:17;;;;;;;33.20;17.80;;;;;;;9.19;95.11;98881.28;105819;1278;23938;-75
2022/09/27 00:15:55;;;;;;;35.30;18.40;;;;;;;9.19;95.39;98872.48;105816;1281;22617;-75
2022/09/27 00:18:26;;;;;;;33.50;17.20;;;;;;;9.21;95.48;98872.19;105795;1279;23236;-74
2022/09/27 00:21:03;;;;;;;34.70;18.90;;;;;;;9.23;95.35;98871.98;105839;1280;24226;-75
2022/09/27 00:23:35;;;;;;;32.00;16.90;;;;;;;9.25;95.44;98870.27;105794;1279;22580;-75
2022/09/27 00:26:08;;;;;;;32.10;16.40;;;;;;;9.26;95.32;98867.09;105774;1279;22535;-75
2022/09/27 00:28:38;;;;;;;30.10;15.80;;;;;;;9.27;95.27;98860.80;105799;1281;26616;-75
2022/09/27 00:31:20;;;;;;;32.10;16.50;;;;;;;9.28;95.31;98857.73;105808;1278;22560;-76
2022/09/27 00:33:53;;;;;;;30.90;16.20;;;;;;;9.29;95.27;98850.59;105843;1279;22551;-76
2022/09/27 00:36:26;;;;;;;29.40;15.00;;;;;;;9.29;95.16;98843.75;105829;1281;22610;-75
2022/09/27 00:38:58;;;;;;;34.60;17.00;;;;;;;9.29;95.10;98839.55;105743;1281;22540;-75
2022/09/27 00:41:32;;;;;;;31.80;16.90;;;;;;;9.28;95.27;98834.08;106030;1278;22874;-76
2022/09/27 00:44:26;;;;;;;33.40;16.80;;;;;;;9.27;95.00;98830.13;105874;1281;22959;-76
2022/09/27 00:47:03;;;;;;;32.70;16.40;;;;;;;9.25;95.13;98825.97;105847;1279;25250;-73
2022/09/27 00:49:38;;;;;;;29.10;14.80;;;;;;;9.23;95.08;98821.87;105950;1277;22579;-76
2022/09/27 00:52:16;;;;;;;27.70;14.50;;;;;;;9.22;94.83;98824.10;105768;1279;25504;-74
2022/09/27 00:54:52;;;;;;;28.10;13.80;;;;;;;9.20;94.65;98817.06;105778;1281;22565;-76
2022/09/27 00:57:24;;;;;;;29.70;15.70;;;;;;;9.18;94.66;98819.54;105870;1281;22555;-76
2022/09/27 01:00:05;;;;;;;27.10;14.50;;;;;;;9.15;94.35;98811.94;105843;1281;24535;-76
2022/09/27 01:02:38;;;;;;;28.90;14.80;;;;;;;9.12;94.25;98813.65;105838;1279;22549;-76
2022/09/27 01:05:11;;;;;;;33.50;15.60;;;;;;;9.09;94.23;98810.15;105848;1281;24287;-75
2022/09/27 01:07:42;;;;;;;27.90;14.50;;;;;;;9.05;94.13;98806.50;105878;1279;22556;-76
2022/09/27 01:10:14;;;;;;;27.60;13.50;;;;;;;9.02;94.18;98805.94;105744;1279;22569;-75
2022/09/27 01:12:59;;;;;;;30.10;14.50;;;;;;;9.00;94.10;98805.92;105974;1281;22558;-76
2022/09/27 01:15:40;;;;;;;27.10;14.00;;;;;;;8.96;94.21;98803.14;105876;1279;22948;-74
2022/09/27 01:18:23;;;;;;;29.40;13.50;;;;;;;8.92;94.00;98800.90;105910;1281;22625;-76
2022/09/27 01:21:28;;;;;;;25.40;12.30;;;;;;;8.86;93.78;98795.77;105746;1281;22874;-75
2022/09/27 01:24:25;;;;;;;26.90;13.70;;;;;;;8.79;93.77;98802.44;105767;1281;22550;-75
2022/09/27 01:27:18;;;;;;;27.40;13.70;;;;;;;8.72;94.13;98800.34;105788;1279;22557;-75
2022/09/27 01:30:04;;;;;;;24.30;13.00;;;;;;;8.67;94.56;98794.60;105782;1279;25498;-76
2022/09/27 01:32:44;;;;;;;26.30;12.20;;;;;;;8.65;94.21;98789.48;105809;1281;22655;-76
2022/09/27 01:35:24;;;;;;;26.40;13.00;;;;;;;8.59;93.75;98788.45;105860;1281;22751;-76
2022/09/27 01:37:58;;;;;;;;;;;;;;;8.54;93.80;98790.00;105806;1279;22692;-76
2022/09/27 01:40:34;;;;;;;25.50;10.90;;;;;;;8.47;93.58;98785.92;105792;1281;22573;-75
2022/09/27 01:43:12;;;;;;;24.90;12.20;;;;;;;8.42;93.43;98780.29;105824;1281;22535;-76
2022/09/27 01:45:48;;;;;;;24.70;12.60;;;;;;;8.39;93.49;98778.11;105799;1278;25508;-74
2022/09/27 01:48:23;;;;;;;25.80;11.60;;;;;;;8.37;93.44;98773.66;105829;1281;24270;-76
2022/09/27 01:51:04;;;;;;;27.10;11.50;;;;;;;8.35;93.38;98764.29;105864;1279;23561;-77
2022/09/27 01:53:38;;;;;;;26.70;12.10;;;;;;;8.34;93.33;98761.00;105875;1279;25293;-74
2022/09/27 01:56:14;;;;;;;25.40;12.30;;;;;;;8.32;93.30;98761.00;105886;1279;22594;-76
2022/09/27 01:58:52;;;;;;;27.80;13.50;;;;;;;8.30;93.38;98761.95;105835;1279;24237;-74
2022/09/27 02:01:26;;;;;;;26.10;12.60;;;;;;;8.31;93.30;98755.89;106043;1279;22580;-76
2022/09/27 02:04:00;;;;;;;28.10;12.80;;;;;;;8.32;93.54;98752.51;105987;1279;22566;-76
2022/09/27 02:06:35;;;;;;;26.60;12.00;;;;;;;8.32;93.45;98746.88;105849;1279;22682;-75
2022/09/27 02:09:13;;;;;;;27.90;13.80;;;;;;;8.33;93.76;98743.05;105833;1281;23107;-76
2022/09/27 02:11:49;;;;;;;30.50;13.80;;;;;;;8.34;93.90;98744.03;105805;1281;24294;-76
2022/09/27 02:14:24;;;;;;;28.30;14.30;;;;;;;8.35;94.02;98736.23;105824;1278;24496;-76
2022/09/27 02:16:59;;;;;;;29.10;13.00;;;;;;;8.35;93.98;98728.65;105901;1279;25373;-77
2022/09/27 02:19:39;;;;;;;27.20;12.70;;;;;;;8.35;94.08;98730.08;105762;1279;25309;-75
2022/09/27 02:22:17;;;;;;;26.90;12.60;;;;;;;8.35;94.00;98725.37;105755;1279;25498;-75
2022/09/27 02:24:53;;;;;;;28.50;13.10;;;;;;;8.34;94.09;98718.34;105743;1279;22550;-76
2022/09/27 02:27:30;;;;;;;27.60;13.60;;;;;;;8.34;94.14;98716.61;105769;1279;24261;-73
2022/09/27 02:30:05;;;;;;;26.80;12.00;;;;;;;8.33;94.09;98715.95;105970;1278;26580;-74
2022/09/27 02:32:37;;;;;;;26.10;12.80;;;;;;;8.33;94.28;98709.27;105864;1279;25381;-76
2022/09/27 02:35:17;;;;;;;28.30;13.90;;;;;;;8.33;94.40;98704.83;105793;1279;22550;-76
2022/09/27 02:37:49;;;;;;;29.10;14.70;;;;;;;8.34;94.57;98695.54;105818;1279;25366;-75
2022/09/27 02:40:20;;;;;;;28.80;14.70;;;;;;;8.36;94.60;98692.96;105865;1279;22563;-75
2022/09/27 02:42:51;;;;;;;28.90;14.30;;;;;;;8.37;94.64;98689.98;105820;1279;22571;-76
2022/09/27 02:45:23;;;;;;;30.70;15.30;;;;;;;8.38;94.76;98688.73;105825;1279;23250;-76
2022/09/27 02:48:15;;;;;;;30.30;14.40;;;;;;;8.39;94.72;98682.25;105898;1279;25311;-76
2022/09/27 02:51:09;;;;;;;28.80;12.80;;;;;;;8.40;94.80;98679.06;105805;1279;22687;-76
2022/09/27 02:53:55;;;;;;;25.40;12.80;;;;;;;8.41;95.03;98676.45;105789;1278;22557;-76
2022/09/27 02:56:34;;;;;;;30.50;14.80;;;;;;;8.42;95.03;98677.66;105891;1278;22602;-75
2022/09/27 02:59:14;;;;;;;31.90;14.40;;;;;;;8.42;95.19;98673.55;105751;1278;22604;-76
2022/09/27 03:01:51;;;;;;;30.50;14.10;;;;;;;8.43;95.17;98676.39;105805;1279;22541;-76
2022/09/27 03:04:28;;;;;;;26.10;13.30;;;;;;;8.44;95.15;98667.86;105908;1279;22694;-76
2022/09/27 03:07:00;;;;;;;28.70;13.50;;;;;;;8.45;95.40;98664.98;105840;1279;29219;-75
2022/09/27 03:09:43;;;;;;;29.80;14.40;;;;;;;8.46;95.53;98664.27;105855;1279;22700;-75
2022/09/27 03:12:19;;;;;;;27.90;13.90;;;;;;;8.47;95.52;98665.85;105818;1278;22564;-74
2022/09/27 03:14:50;;;;;;;33.30;16.70;;;;;;;8.48;95.44;98665.70;105894;1278;23254;-76
2022/09/27 03:17:21;;;;;;;30.10;15.70;;;;;;;8.49;95.62;98668.22;105804;1278;24221;-76
2022/09/27 03:19:53;;;;;;;34.00;17.20;;;;;;;8.49;95.70;98670.30;105815;1279;22711;-75
2022/09/27 03:22:25;;;;;;;31.60;16.80;;;;;;;8.51;95.62;98669.60;105770;1279;22562;-76
2022/09/27 03:24:57;;;;;;;32.20;15.90;;;;;;;8.51;95.51;98668.52;105817;1279;23946;-74
2022/09/27 03:27:28;;;;;;;30.90;17.10;;;;;;;8.51;95.54;98661.30;105844;1278;24429;-74
2022/09/27 03:29:59;;;;;;;33.30;17.20;;;;;;;8.51;95.38;98653.05;105822;1279;25478;-76
2022/09/27 03:32:30;;;;;;;29.80;14.80;;;;;;;8.50;95.31;98647.30;105804;1278;22650;-75
2022/09/27 03:35:01;;;;;;;29.40;15.10;;;;;;;8.50;95.18;98648.36;105819;1279;22544;-75
2022/09/27 03:37:32;;;;;;;30.30;16.40;;;;;;;8.48;95.21;98641.21;105839;1279;26979;-76
2022/09/27 03:40:03;;;;;;;32.70;17.10;;;;;;;8.48;95.24;98643.19;105809;1278;22564;-76
2022/09/27 03:42:35;;;;;;;36.10;20.60;;;;;;;8.47;95.27;98634.89;105829;1278;25250;-76
2022/09/27 03:45:10;;;;;;;33.40;18.70;;;;;;;8.47;95.37;98632.71;105757;1279;24575;-76
2022/09/27 03:47:43;;;;;;;31.70;16.10;;;;;;;8.47;95.26;98636.86;106020;1279;23224;-76
2022/09/27 03:50:15;;;;;;;32.50;16.30;;;;;;;8.47;95.32;98636.71;105825;1279;23080;-76
2022/09/27 03:52:46;;;;;;;31.80;15.70;;;;;;;8.47;95.38;98632.27;106006;1278;22568;-75
2022/09/27 03:55:19;;;;;;;34.30;15.70;;;;;;;8.47;95.32;98628.62;105800;1279;23777;-76
2022/09/27 03:57:50;;;;;;;29.20;15.10;;;;;;;8.47;95.38;98619.42;105821;1279;22607;-76
2022/09/27 04:00:25;;;;;;;33.00;15.70;;;;;;;8.48;95.36;98622.27;105786;1278;22528;-75
2022/09/27 04:02:56;;;;;;;32.40;15.70;;;;;;;8.47;95.48;98623.11;105813;1279;24240;-76
2022/09/27 04:05:28;;;;;;;33.90;14.00;;;;;;;8.48;95.59;98623.63;105849;1278;25320;-77
2022/09/27 04:07:59;;;;;;;30.20;15.70;;;;;;;8.47;95.63;98621.34;105883;1277;24358;-74
2022/09/27 04:10:30;;;;;;;110.80;61.10;;;;;;;8.47;95.60;98621.04;105828;1278;24260;-76
2022/09/27 04:13:01;;;;;;;383.80;194.50;;;;;;;8.47;95.76;98620.73;105762;1279;23634;-78
2022/09/27 04:15:32;;;;;;;281.70;130.90;;;;;;;8.48;95.80;98624.59;105804;1278;25449;-76
2022/09/27 04:18:03;;;;;;;161.50;76.30;;;;;;;8.48;95.86;98618.83;105781;1279;22654;-75
2022/09/27 04:20:35;;;;;;;114.50;59.60;;;;;;;8.49;95.79;98612.96;105836;1279;22560;-75
2022/09/27 04:23:06;;;;;;;69.20;37.50;;;;;;;8.50;95.91;98613.66;105806;1279;24427;-76
2022/09/27 04:25:38;;;;;;;54.30;27.90;;;;;;;8.52;95.82;98616.54;105915;1278;25541;-75
2022/09/27 04:28:12;;;;;;;66.80;38.30;;;;;;;8.54;95.91;98612.15;105890;1277;25268;-77
2022/09/27 04:30:43;;;;;;;64.40;35.00;;;;;;;8.55;96.04;98616.25;105918;1276;23222;-76
2022/09/27 04:33:17;;;;;;;53.70;30.10;;;;;;;8.57;96.24;98614.94;105909;1277;22680;-76
2022/09/27 04:38:37;;;;;;;56.00;31.00;;;;;;;8.58;96.27;98615.30;105809;1279;24257;-75
2022/09/27 04:41:09;;;;;;;61.20;33.70;;;;;;;8.60;96.20;98614.69;105820;1278;22797;-76
2022/09/27 04:43:40;;;;;;;55.90;30.10;;;;;;;8.61;96.39;98615.23;105994;1278;22553;-75
2022/09/27 04:46:11;;;;;;;52.50;29.90;;;;;;;8.61;96.32;98609.52;105805;1278;22560;-76
2022/09/27 04:48:42;;;;;;;61.70;34.50;;;;;;;8.63;96.26;98603.19;105851;1277;25504;-75
2022/09/27 04:51:16;;;;;;;45.30;26.70;;;;;;;8.65;96.42;98595.21;105763;1281;24269;-73
2022/09/27 04:53:47;;;;;;;65.90;37.20;;;;;;;8.68;96.57;98599.51;105932;1278;26646;-75
2022/09/27 04:56:18;;;;;;;54.80;32.00;;;;;;;8.71;96.48;98598.71;105802;1279;22649;-74
2022/09/27 04:58:49;;;;;;;48.00;26.00;;;;;;;8.73;96.61;98594.52;105877;1278;22683;-75
2022/09/27 05:01:21;;;;;;;62.00;34.20;;;;;;;8.76;96.78;98592.52;105910;1278;22761;-75
2022/09/27 05:03:51;;;;;;;89.10;49.90;;;;;;;8.77;96.80;98592.83;105865;1278;24451;-75
2022/09/27 05:06:22;;;;;;;55.30;30.40;;;;;;;8.78;96.77;98590.36;105941;1278;22537;-76
2022/09/27 05:08:53;;;;;;;41.10;20.70;;;;;;;8.80;96.73;98589.44;105943;1279;23299;-74
2022/09/27 05:11:25;;;;;;;33.60;18.10;;;;;;;8.79;96.92;98586.86;106042;1278;23109;-75
2022/09/27 05:13:56;;;;;;;37.10;20.40;;;;;;;8.80;96.83;98593.83;105830;1279;22561;-74
2022/09/27 05:16:27;;;;;;;36.20;20.50;;;;;;;8.80;96.92;98591.72;105863;1279;24227;-76
2022/09/27 05:18:59;;;;;;;33.60;18.20;;;;;;;8.80;97.00;98600.16;105838;1278;22590;-75
2022/09/27 05:21:31;;;;;;;31.80;18.00;;;;;;;8.81;97.05;98593.98;105850;1278;24622;-75
2022/09/27 05:24:03;;;;;;;30.90;17.30;;;;;;;8.83;97.11;98592.83;105981;1279;24291;-75
2022/09/27 05:26:34;;;;;;;32.60;18.40;;;;;;;8.83;97.16;98595.97;106006;1279;25384;-74
2022/09/27 05:29:05;;;;;;;33.30;19.10;;;;;;;8.84;97.19;98589.48;106028;1279;26664;-76
2022/09/27 05:31:36;;;;;;;31.20;18.40;;;;;;;8.85;97.39;98586.70;105930;1279;24015;-74
2022/09/27 05:34:09;;;;;;;32.70;16.60;;;;;;;8.86;97.26;98589.70;105889;1279;23280;-75
2022/09/27 05:36:41;;;;;;;30.70;16.30;;;;;;;8.88;97.23;98589.48;105974;1278;25383;-76
2022/09/27 05:39:12;;;;;;;31.90;17.50;;;;;;;8.90;97.50;98592.48;105861;1279;22555;-74
2022/09/27 05:41:43;;;;;;;33.10;16.90;;;;;;;8.92;97.46;98587.31;105826;1279;26590;-74
2022/09/27 05:44:15;;;;;;;29.60;16.00;;;;;;;8.92;97.63;98586.80;105866;1279;23475;-75
2022/09/27 05:46:45;;;;;;;32.50;18.30;;;;;;;8.94;97.78;98578.66;105803;1279;23194;-75
2022/09/27 05:49:16;;;;;;;36.60;23.30;;;;;;;8.95;97.72;98581.33;105863;1279;22556;-76
2022/09/27 05:51:48;;;;;;;43.30;25.90;;;;;;;8.97;97.77;98582.45;105941;1279;24213;-75
2022/09/27 05:54:19;;;;;;;44.50;25.70;;;;;;;8.98;97.76;98577.43;105888;1278;22602;-76
2022/09/27 05:56:51;;;;;;;42.00;24.00;;;;;;;9.01;97.98;98575.71;105782;1278;25265;-76
2022/09/27 05:59:21;;;;;;;38.50;23.00;;;;;;;9.02;97.96;98574.95;105827;1278;24341;-76
2022/09/27 06:01:53;;;;;;;41.80;22.50;;;;;;;9.05;97.96;98577.37;105864;1278;22552;-76
2022/09/27 06:04:25;;;;;;;36.10;18.70;;;;;;;9.08;98.04;98575.75;105885;1279;25428;-76
2022/09/27 06:06:57;;;;;;;35.40;18.20;;;;;;;9.10;97.97;98565.88;105862;1278;22564;-75
2022/09/27 06:09:28;;;;;;;40.40;19.10;;;;;;;9.13;98.10;98563.84;105916;1278;23290;-75
2022/09/27 06:11:59;;;;;;;52.90;24.00;;;;;;;9.15;97.98;98559.49;105832;1279;25282;-75
2022/09/27 06:14:31;;;;;;;64.60;29.20;;;;;;;9.17;98.26;98555.08;105813;1278;22547;-75
2022/09/27 06:17:01;;;;;;;52.80;23.70;;;;;;;9.20;98.28;98553.15;105834;1279;25313;-74
2022/09/27 06:19:34;;;;;;;42.50;21.60;;;;;;;9.20;98.21;98545.81;105861;1277;24394;-74
2022/09/27 06:22:06;;;;;;;37.50;20.40;;;;;;;9.22;98.08;98545.65;105865;1278;22621;-75
2022/09/27 06:24:37;;;;;;;39.60;20.10;;;;;;;9.25;98.29;98556.07;105804;1279;22567;-75
2022/09/27 06:27:08;;;;;;;34.50;18.70;;;;;;;9.29;98.51;98564.31;105901;1279;22587;-75
2022/09/27 06:29:39;;;;;;;33.60;17.60;;;;;;;9.32;98.72;98561.27;105812;1278;22622;-75
2022/09/27 06:32:10;;;;;;;36.80;19.30;;;;;;;9.35;98.74;98561.86;105993;1279;22507;-75
2022/09/27 06:34:41;;;;;;;34.10;17.40;;;;;;;9.38;98.70;98572.80;105801;1277;25329;-76
2022/09/27 06:37:12;;;;;;;35.60;19.10;;;;;;;9.40;98.83;98566.52;105827;1278;22566;-76
2022/09/27 06:39:42;;;;;;;36.40;19.00;;;;;;;9.43;98.73;98569.44;105795;1278;22569;-75
2022/09/27 06:42:13;;;;;;;32.30;17.50;;;;;;;9.46;99.11;98565.77;105825;1278;22687;-73
2022/09/27 06:44:46;;;;;;;34.70;18.60;;;;;;;9.51;99.15;98572.14;105848;1279;25527;-76
2022/09/27 06:47:17;;;;;;;31.90;16.60;;;;;;;9.54;99.19;98572.52;105780;1279;26582;-74
2022/09/27 06:49:48;;;;;;;33.00;18.30;;;;;;;9.58;99.52;98570.24;105802;1278;22788;-73
2022/09/27 06:52:20;;;;;;;29.80;16.10;;;;;;;9.61;99.61;98572.77;105784;1278;22575;-73
2022/09/27 06:54:51;;;;;;;34.80;19.70;;;;;;;9.65;99.57;98565.45;105817;1278;23053;-75
2022/09/27 07:00:25;;;;;;;35.60;19.40;;;;;;;9.75;99.86;98561.20;105779;1278;24304;-75
2022/09/27 07:02:59;;;;;;;38.40;19.80;;;;;;;9.82;99.99;98563.71;105753;1278;24057;-74
2022/09/27 07:05:34;;;;;;;37.90;19.90;;;;;;;9.88;99.95;98566.36;105781;1279;22728;-75
2022/09/27 07:08:05;;;;;;;39.40;19.80;;;;;;;9.93;100.00;98566.28;105848;1277;24420;-75
2022/09/27 07:10:38;;;;;;;36.50;17.40;;;;;;;9.97;100.00;98569.66;105849;1278;25402;-74
2022/09/27 07:13:10;;;;;;;32.30;17.40;;;;;;;10.01;99.94;98566.55;105889;1279;24129;-76
2022/09/27 07:15:42;;;;;;;36.30;18.00;;;;;;;10.05;99.99;98559.68;105852;1278;26062;-74
2022/09/27 07:18:13;;;;;;;35.50;18.60;;;;;;;10.09;99.99;98558.50;105864;1278;25253;-76
2022/09/27 07:20:44;;;;;;;33.50;18.20;;;;;;;10.14;100.00;98566.30;105804;1278;22629;-73
2022/09/27 07:23:18;;;;;;;36.40;18.30;;;;;;;10.16;100.00;98565.46;105787;1279;25247;-74
2022/09/27 07:25:51;;;;;;;31.90;15.60;;;;;;;10.18;100.00;98564.08;105966;1278;25312;-75
2022/09/27 07:28:22;;;;;;;32.80;16.40;;;;;;;10.20;100.00;98560.52;105810;1278;22865;-73
2022/09/27 07:30:55;;;;;;;32.60;17.80;;;;;;;10.23;100.00;98559.75;105775;1279;22652;-74
2022/09/27 07:33:26;;;;;;;33.80;17.10;;;;;;;10.25;100.00;98558.61;105790;1279;22558;-75
2022/09/27 07:35:57;;;;;;;30.70;16.40;;;;;;;10.29;100.00;98558.75;105757;1278;22545;-75
2022/09/27 07:38:28;;;;;;;33.30;16.60;;;;;;;10.32;100.00;98554.82;105814;1279;22562;-75
2022/09/27 07:41:05;;;;;;;33.70;17.80;;;;;;;10.34;100.00;98554.35;105877;1278;22637;-75
2022/09/27 07:43:36;;;;;;;31.30;16.70;;;;;;;10.35;100.00;98559.81;105796;1279;24458;-75
2022/09/27 07:46:07;;;;;;;33.00;16.40;;;;;;;10.38;100.00;98562.34;105853;1278;25356;-76
2022/09/27 07:48:39;;;;;;;33.70;16.80;;;;;;;10.40;100.00;98561.77;105907;1278;24249;-75
2022/09/27 07:51:11;;;;;;;30.10;16.50;;;;;;;10.42;100.00;98561.14;105914;1279;24767;-75
2022/09/27 07:53:42;;;;;;;34.10;17.40;;;;;;;10.44;100.00;98567.81;105772;1278;25544;-76
2022/09/27 07:56:13;;;;;;;33.90;16.60;;;;;;;10.46;100.00;98567.81;105821;1278;23458;-78
2022/09/27 07:58:44;;;;;;;31.70;17.10;;;;;;;10.49;100.00;98566.83;105865;1278;22773;-73
2022/09/27 08:01:15;;;;;;;34.50;17.90;;;;;;;10.50;100.00;98565.54;105865;1279;23533;-74
2022/09/27 08:03:46;;;;;;;39.10;19.50;;;;;;;10.53;100.00;98558.16;105860;1278;22711;-75
2022/09/27 08:06:19;;;;;;;37.90;20.20;;;;;;;10.56;100.00;98554.93;105832;1279;25252;-76
2022/09/27 08:08:49;;;;;;;34.40;19.70;;;;;;;10.59;100.00;98553.95;105834;1278;22993;-74
2022/09/27 08:11:21;;;;;;;34.20;18.30;;;;;;;10.62;100.00;98551.60;105862;1279;23058;-74
2022/09/27 08:13:52;;;;;;;36.10;20.10;;;;;;;10.65;100.00;98541.11;105857;1279;22564;-75
2022/09/27 08:16:23;;;;;;;38.20;20.30;;;;;;;10.68;100.00;98535.92;105856;1278;24566;-74
2022/09/27 08:18:55;;;;;;;36.70;21.20;;;;;;;10.71;100.00;98529.80;105814;1279;25308;-75
2022/09/27 08:21:26;;;;;;;39.00;20.30;;;;;;;10.74;100.00;98528.15;105844;1278;26524;-75
2022/09/27 08:23:58;;;;;;;34.80;17.90;;;;;;;10.79;100.00;98530.23;105784;1278;25315;-75
2022/09/27 08:26:30;;;;;;;37.80;20.00;;;;;;;10.83;100.00;98527.66;105990;1278;24286;-74
2022/09/27 08:29:01;;;;;;;31.50;17.30;;;;;;;10.89;100.00;98527.15;105802;1278;24229;-74
2022/09/27 08:31:33;;;;;;;30.30;16.30;;;;;;;10.93;100.00;98525.17;105845;1279;25447;-74
2022/09/27 08:34:07;;;;;;;32.90;16.20;;;;;;;10.97;100.00;98519.20;105807;1278;22545;-74
2022/09/27 08:36:38;;;;;;;33.90;16.40;;;;;;;10.99;100.00;98519.28;105805;1278;24159;-74
2022/09/27 08:39:09;;;;;;;29.10;16.50;;;;;;;11.00;100.00;98526.38;105773;1279;22583;-75
2022/09/27 08:41:47;;;;;;;33.10;17.10;;;;;;;11.02;100.00;98528.33;105802;1279;25372;-75
2022/09/27 08:44:28;;;;;;;32.10;16.80;;;;;;;11.05;100.00;98531.10;105827;1278;22547;-75
2022/09/27 08:47:06;;;;;;;32.30;17.40;;;;;;;11.06;100.00;98534.64;105714;1279;22541;-74
2022/09/27 08:49:42;;;;;;;28.60;15.30;;;;;;;11.08;100.00;98539.55;105830;1278;22775;-75
2022/09/27 08:52:20;;;;;;;29.80;16.30;;;;;;;11.08;100.00;98532.95;105763;1279;24389;-73
2022/09/27 08:54:52;;;;;;;31.90;16.20;;;;;;;11.08;100.00;98532.68;105897;1279;22566;-74
2022/09/27 08:57:25;;;;;;;30.60;16.30;;;;;;;11.09;100.00;98535.23;105792;1279;23205;-74
2022/09/27 09:00:05;;;;;;;28.10;15.40;;;;;;;11.11;100.00;98533.37;105817;1278;22550;-75
2022/09/27 09:02:37;;;;;;;;;;;;;;;11.13;100.00;98536.14;105880;1279;22531;-76
2022/09/27 09:05:15;;;;;;;33.80;16.00;;;;;;;11.14;100.00;98541.16;105835;1278;24270;-75
2022/09/27 09:08:04;;;;;;;34.20;17.80;;;;;;;11.15;100.00;98540.84;105852;1278;22538;-75
2022/09/27 09:13:50;;;;;;;29.40;15.50;;;;;;;11.17;100.00;98549.41;105738;1279;25676;-75
2022/09/27 09:16:35;;;;;;;28.80;14.70;;;;;;;11.20;100.00;98548.52;105849;1278;23234;-75
2022/09/27 09:19:26;;;;;;;30.30;14.90;;;;;;;11.26;100.00;98550.79;105877;1278;24239;-74
2022/09/27 09:22:10;;;;;;;27.70;15.60;;;;;;;11.31;100.00;98551.08;105959;1278;24339;-76
2022/09/27 09:24:58;;;;;;;32.90;17.00;;;;;;;11.35;100.00;98552.46;105794;1278;25256;-76
2022/09/27 09:27:38;;;;;;;25.70;14.00;;;;;;;11.37;100.00;98554.31;105834;1278;22690;-75
2022/09/27 09:30:22;;;;;;;28.50;15.50;;;;;;;11.39;100.00;98553.17;105823;1278;25295;-76
2022/09/27 09:33:15;;;;;;;28.40;14.80;;;;;;;11.44;100.00;98550.44;105821;1279;25310;-76
2022/09/27 09:35:53;;;;;;;26.50;13.80;;;;;;;11.49;100.00;98539.05;105745;1279;22563;-75
2022/09/27 09:38:33;;;;;;;27.40;14.40;;;;;;;11.55;100.00;98538.27;105827;1278;25264;-75
2022/09/27 09:41:11;;;;;;;30.00;17.10;;;;;;;11.62;100.00;98532.79;105824;1278;25255;-73
2022/09/27 09:43:48;;;;;;;26.90;15.00;;;;;;;11.71;100.00;98533.56;105905;1279;22709;-73
2022/09/27 09:46:24;;;;;;;24.80;13.30;;;;;;;11.78;100.00;98527.67;105893;1278;22732;-73
2022/09/27 09:49:03;;;;;;;28.70;14.90;;;;;;;11.82;100.00;98522.39;105881;1278;25210;-74
2022/09/27 09:51:42;;;;;;;31.90;15.90;;;;;;;11.86;100.00;98517.97;105756;1279;22727;-73
2022/09/27 09:54:22;;;;;;;30.10;15.40;;;;;;;11.91;100.00;98519.86;105792;1278;25247;-73
2022/09/27 09:56:59;;;;;;;27.60;14.20;;;;;;;11.94;100.00;98515.55;105828;1278;26752;-74
2022/09/27 09:59:36;;;;;;;29.20;13.50;;;;;;;11.99;100.00;98513.40;105999;1278;22595;-73
2022/09/27 10:02:32;;;;;;;26.20;12.60;;;;;;;12.01;100.00;98509.01;105906;1279;22566;-73
2022/09/27 10:05:04;;;;;;;26.30;13.60;;;;;;;12.05;100.00;98508.59;105971;1279;22566;-74
2022/09/27 10:07:38;;;;;;;31.50;15.00;;;;;;;12.09;100.00;98502.17;105797;1279;23033;-74
2022/09/27 10:10:14;;;;;;;30.10;14.70;;;;;;;12.13;100.00;98497.45;105795;1281;25520;-74
2022/09/27 10:12:46;;;;;;;30.00;15.40;;;;;;;12.15;100.00;98487.02;105836;1278;24303;-73
2022/09/27 10:15:20;;;;;;;30.10;15.90;;;;;;;12.19;100.00;98484.98;105892;1278;22560;-74
2022/09/27 10:17:55;;;;;;;34.60;16.90;;;;;;;12.24;100.00;98487.45;105863;1278;22541;-73
2022/09/27 10:20:33;;;;;;;31.00;16.60;;;;;;;12.29;100.00;98485.19;105895;1278;22787;-74
2022/09/27 10:23:11;;;;;;;30.90;17.10;;;;;;;12.31;100.00;98483.02;105737;1278;23195;-73
2022/09/27 10:25:53;;;;;;;28.00;15.50;;;;;;;12.32;100.00;98477.90;105842;1278;22563;-73
2022/09/27 10:28:42;;;;;;;35.80;16.40;;;;;;;12.35;100.00;98478.37;105833;1278;22648;-72
2022/09/27 10:31:16;;;;;;;29.30;15.20;;;;;;;12.40;100.00;98475.69;105936;1278;23138;-73
2022/09/27 10:34:00;;;;;;;33.30;17.10;;;;;;;12.46;100.00;98479.55;105888;1279;25379;-73
2022/09/27 10:36:33;;;;;;;27.80;14.20;;;;;;;12.51;100.00;98478.05;105823;1278;24258;-73
2022/09/27 10:39:06;;;;;;;25.30;14.40;;;;;;;12.56;100.00;98475.17;105824;1279;22550;-73
2022/09/27 10:41:40;;;;;;;24.90;13.20;;;;;;;12.58;100.00;98478.75;105899;1278;22541;-73
2022/09/27 10:44:27;;;;;;;24.90;13.10;;;;;;;12.60;100.00;98482.33;105908;1279;22582;-74
2022/09/27 10:47:07;;;;;;;26.50;13.80;;;;;;;12.63;100.00;98484.05;105875;1278;270635;-76
2022/09/27 10:49:40;;;;;;;21.50;11.20;;;;;;;12.65;100.00;98483.15;105864;1278;22581;-76
2022/09/27 10:52:19;;;;;;;24.80;13.80;;;;;;;12.64;100.00;98486.47;105826;1278;25223;-76
2022/09/27 10:54:58;;;;;;;26.00;13.40;;;;;;;12.65;100.00;98489.87;105871;1278;22746;-77
2022/09/27 10:57:31;;;;;;;29.90;13.50;;;;;;;12.64;100.00;98489.67;105923;1278;22535;-77
2022/09/27 11:00:09;;;;;;;26.20;12.80;;;;;;;12.64;100.00;98489.53;105850;1279;25363;-75
2022/09/27 11:02:41;;;;;;;21.80;11.10;;;;;;;12.65;100.00;98491.86;105788;1278;25310;-76
2022/09/27 11:05:14;;;;;;;23.30;12.00;;;;;;;12.66;100.00;98492.09;105801;1278;22600;-75
2022/09/27 11:07:53;;;;;;;24.70;12.60;;;;;;;12.65;100.00;98494.30;105851;1278;23182;-75
2022/09/27 11:10:27;;;;;;;21.40;10.20;;;;;;;12.65;100.00;98496.19;105973;1278;22637;-76
2022/09/27 11:13:24;;;;;;;23.90;11.40;;;;;;;12.66;100.00;98491.67;105888;1278;24379;-76
2022/09/27 11:16:11;;;;;;;22.00;10.20;;;;;;;12.65;100.00;98495.57;105350;1284;23841;-75
2022/09/27 11:18:56;;;;;;;22.40;9.90;;;;;;;12.66;100.00;98494.89;105341;1284;22560;-76
2022/09/27 11:21:35;;;;;;;20.30;9.50;;;;;;;12.67;100.00;98492.23;105415;1284;24211;-75
2022/09/27 11:24:25;;;;;;;20.60;10.20;;;;;;;12.65;100.00;98488.83;105260;1284;22683;-76
2022/09/27 11:27:10;;;;;;;22.20;10.30;;;;;;;12.67;100.00;98491.62;105300;1284;25237;-75
2022/09/27 11:29:56;;;;;;;21.40;10.60;;;;;;;12.68;100.00;98486.45;105276;1284;22538;-74
2022/09/27 11:32:43;;;;;;;25.30;10.80;;;;;;;12.70;100.00;98488.26;105313;1284;22569;-77
2022/09/27 11:35:32;;;;;;;25.00;11.70;;;;;;;12.73;100.00;98488.70;105350;1284;24329;-76
2022/09/27 11:38:14;;;;;;;23.80;12.30;;;;;;;12.77;100.00;98487.52;105516;1283;23503;-77
2022/09/27 11:41:02;;;;;;;22.70;11.90;;;;;;;12.79;100.00;98481.88;105252;1284;24366;-76
2022/09/27 11:43:54;;;;;;;24.20;12.30;;;;;;;12.81;100.00;98480.68;105313;1284;23330;-75
2022/09/27 11:46:31;;;;;;;23.60;12.10;;;;;;;12.85;100.00;98479.08;105335;1284;22564;-77
2022/09/27 11:49:31;;;;;;;26.70;13.10;;;;;;;12.87;100.00;98474.46;105399;1284;25361;-76
2022/09/27 11:52:24;;;;;;;24.60;12.00;;;;;;;12.91;100.00;98467.96;105466;1279;26522;-74
2022/09/27 11:55:15;;;;;;;25.70;12.70;;;;;;;12.95;100.00;98461.98;105912;1278;22564;-74
2022/09/27 11:57:52;;;;;;;22.70;11.80;;;;;;;13.00;100.00;98456.64;105964;1279;24267;-77